sensor_id;sensor_type;location;lat;lon;timestamp;P1;durP1;ratioP1;P2;durP2;ratioP2
24843;SDS011;12921;51.392;12.240;2022-11-20T00:00:03;0.30;;;0.30;;
24843;SDS011;12921;51.392;12.240;2022-11-20T00:02:29;9.20;;;8.23;;
24843;SDS011;12921;51.392;12.240;2022-11-20T00:04:55;22.60;;;10.98;;
24843;SDS011;12921;51.392;12.240;2022-11-20T00:07:21;6.28;;;4.53;;
24843;SDS011;12921;51.392;12.240;2022-11-20T00:09:47;8.15;;;4.78;;
24843;SDS011;12921;51.392;12.240;2022-11-20T00:12:13;6.63;;;3.60;;
24843;SDS011;12921;51.392;12.240;2022-11-20T00:14:39;10.32;;;3.30;;
24843;SDS011;12921;51.392;12.240;2022-11-20T00:17:06;4.60;;;1.83;;
24843;SDS011;12921;51.392;12.240;2022-11-20T00:19:32;4.95;;;3.38;;
24843;SDS011;12921;51.392;12.240;2022-11-20T00:21:59;2.20;;;2.10;;
24843;SDS011;12921;51.392;12.240;2022-11-20T00:24:25;8.95;;;8.25;;
24843;SDS011;12921;51.392;12.240;2022-11-20T00:26:51;7.88;;;5.55;;
24843;SDS011;12921;51.392;12.240;2022-11-20T00:29:17;4.97;;;3.65;;
24843;SDS011;12921;51.392;12.240;2022-11-20T00:31:43;8.13;;;5.35;;
24843;SDS011;12921;51.392;12.240;2022-11-20T00:34:09;13.23;;;5.10;;
24843;SDS011;12921;51.392;12.240;2022-11-20T00:36:35;6.22;;;2.53;;
24843;SDS011;12921;51.392;12.240;2022-11-20T00:39:01;2.63;;;2.53;;
24843;SDS011;12921;51.392;12.240;2022-11-20T00:41:28;1.77;;;1.70;;
24843;SDS011;12921;51.392;12.240;2022-11-20T00:43:55;1.00;;;1.00;;
24843;SDS011;12921;51.392;12.240;2022-11-20T00:46:22;0.40;;;0.40;;
24843;SDS011;12921;51.392;12.240;2022-11-20T00:48:48;0.40;;;0.40;;
24843;SDS011;12921;51.392;12.240;2022-11-20T00:51:16;0.40;;;0.40;;
24843;SDS011;12921;51.392;12.240;2022-11-20T00:53:42;0.20;;;0.20;;
24843;SDS011;12921;51.392;12.240;2022-11-20T00:56:10;2.97;;;2.47;;
24843;SDS011;12921;51.392;12.240;2022-11-20T00:58:37;3.08;;;2.88;;
24843;SDS011;12921;51.392;12.240;2022-11-20T01:01:07;0.40;;;0.40;;
24843;SDS011;12921;51.392;12.240;2022-11-20T01:03:34;2.58;;;2.35;;
24843;SDS011;12921;51.392;12.240;2022-11-20T01:06:08;0.77;;;0.77;;
24843;SDS011;12921;51.392;12.240;2022-11-20T01:08:35;0.30;;;0.30;;
24843;SDS011;12921;51.392;12.240;2022-11-20T01:11:05;0.35;;;0.35;;
24843;SDS011;12921;51.392;12.240;2022-11-20T01:13:31;0.30;;;0.30;;
24843;SDS011;12921;51.392;12.240;2022-11-20T01:16:08;0.30;;;0.30;;
24843;SDS011;12921;51.392;12.240;2022-11-20T01:18:35;0.30;;;0.30;;
24843;SDS011;12921;51.392;12.240;2022-11-20T01:21:05;0.30;;;0.30;;
24843;SDS011;12921;51.392;12.240;2022-11-20T01:23:32;0.30;;;0.30;;
24843;SDS011;12921;51.392;12.240;2022-11-20T01:25:59;0.43;;;0.43;;
24843;SDS011;12921;51.392;12.240;2022-11-20T01:28:26;0.20;;;0.20;;
24843;SDS011;12921;51.392;12.240;2022-11-20T01:30:52;0.38;;;0.38;;
24843;SDS011;12921;51.392;12.240;2022-11-20T01:33:17;1.02;;;1.02;;
24843;SDS011;12921;51.392;12.240;2022-11-20T01:35:44;0.30;;;0.30;;
24843;SDS011;12921;51.392;12.240;2022-11-20T01:38:09;0.30;;;0.30;;
24843;SDS011;12921;51.392;12.240;2022-11-20T01:40:35;2.53;;;2.42;;
24843;SDS011;12921;51.392;12.240;2022-11-20T01:43:19;6.38;;;3.95;;
24843;SDS011;12921;51.392;12.240;2022-11-20T01:45:50;12.05;;;4.30;;
24843;SDS011;12921;51.392;12.240;2022-11-20T01:48:18;5.13;;;4.72;;
24843;SDS011;12921;51.392;12.240;2022-11-20T01:50:45;7.22;;;3.95;;
24843;SDS011;12921;51.392;12.240;2022-11-20T01:53:13;23.50;;;11.02;;
24843;SDS011;12921;51.392;12.240;2022-11-20T01:55:48;45.53;;;15.43;;
24843;SDS011;12921;51.392;12.240;2022-11-20T01:58:15;3.63;;;3.40;;
24843;SDS011;12921;51.392;12.240;2022-11-20T02:00:41;7.53;;;4.47;;
24843;SDS011;12921;51.392;12.240;2022-11-20T02:03:11;1.13;;;1.13;;
24843;SDS011;12921;51.392;12.240;2022-11-20T02:08:05;21.20;;;6.63;;
24843;SDS011;12921;51.392;12.240;2022-11-20T02:10:31;17.17;;;9.10;;
24843;SDS011;12921;51.392;12.240;2022-11-20T02:12:58;24.23;;;9.85;;
24843;SDS011;12921;51.392;12.240;2022-11-20T02:15:42;0.95;;;0.95;;
24843;SDS011;12921;51.392;12.240;2022-11-20T02:18:09;10.30;;;4.78;;
24843;SDS011;12921;51.392;12.240;2022-11-20T02:20:35;6.30;;;4.88;;
24843;SDS011;12921;51.392;12.240;2022-11-20T02:23:03;3.05;;;2.35;;
24843;SDS011;12921;51.392;12.240;2022-11-20T02:25:30;9.35;;;4.95;;
24843;SDS011;12921;51.392;12.240;2022-11-20T02:27:57;1.92;;;1.77;;
24843;SDS011;12921;51.392;12.240;2022-11-20T02:30:24;11.90;;;5.70;;
24843;SDS011;12921;51.392;12.240;2022-11-20T02:32:50;8.55;;;3.67;;
24843;SDS011;12921;51.392;12.240;2022-11-20T02:37:45;2.70;;;2.53;;
24843;SDS011;12921;51.392;12.240;2022-11-20T02:40:13;12.57;;;5.72;;
24843;SDS011;12921;51.392;12.240;2022-11-20T02:42:39;9.02;;;4.10;;
24843;SDS011;12921;51.392;12.240;2022-11-20T02:45:05;17.77;;;8.15;;
24843;SDS011;12921;51.392;12.240;2022-11-20T02:47:32;17.52;;;6.15;;
24843;SDS011;12921;51.392;12.240;2022-11-20T02:49:58;9.35;;;3.85;;
24843;SDS011;12921;51.392;12.240;2022-11-20T02:52:24;5.80;;;3.63;;
24843;SDS011;12921;51.392;12.240;2022-11-20T02:54:50;1.55;;;0.65;;
24843;SDS011;12921;51.392;12.240;2022-11-20T02:57:16;0.40;;;0.40;;
24843;SDS011;12921;51.392;12.240;2022-11-20T02:59:42;4.18;;;3.88;;
24843;SDS011;12921;51.392;12.240;2022-11-20T03:02:08;0.30;;;0.30;;
24843;SDS011;12921;51.392;12.240;2022-11-20T03:04:34;8.25;;;3.78;;
24843;SDS011;12921;51.392;12.240;2022-11-20T03:07:00;7.80;;;4.15;;
24843;SDS011;12921;51.392;12.240;2022-11-20T03:09:26;9.63;;;3.50;;
24843;SDS011;12921;51.392;12.240;2022-11-20T03:11:52;8.75;;;5.38;;
24843;SDS011;12921;51.392;12.240;2022-11-20T03:14:18;6.47;;;2.67;;
24843;SDS011;12921;51.392;12.240;2022-11-20T03:16:44;4.05;;;3.67;;
24843;SDS011;12921;51.392;12.240;2022-11-20T03:19:10;3.35;;;3.10;;
24843;SDS011;12921;51.392;12.240;2022-11-20T03:21:36;10.50;;;5.13;;
24843;SDS011;12921;51.392;12.240;2022-11-20T03:24:02;1.75;;;1.70;;
24843;SDS011;12921;51.392;12.240;2022-11-20T03:26:29;14.10;;;5.13;;
24843;SDS011;12921;51.392;12.240;2022-11-20T03:28:55;14.70;;;5.95;;
24843;SDS011;12921;51.392;12.240;2022-11-20T03:31:23;11.52;;;7.38;;
24843;SDS011;12921;51.392;12.240;2022-11-20T03:33:49;9.45;;;4.97;;
24843;SDS011;12921;51.392;12.240;2022-11-20T03:36:16;5.10;;;3.83;;
24843;SDS011;12921;51.392;12.240;2022-11-20T03:38:42;3.72;;;2.58;;
24843;SDS011;12921;51.392;12.240;2022-11-20T03:41:10;0.50;;;0.50;;
24843;SDS011;12921;51.392;12.240;2022-11-20T03:43:36;10.15;;;6.90;;
24843;SDS011;12921;51.392;12.240;2022-11-20T03:46:02;21.10;;;9.15;;
24843;SDS011;12921;51.392;12.240;2022-11-20T03:48:29;15.40;;;6.90;;
24843;SDS011;12921;51.392;12.240;2022-11-20T03:51:11;20.95;;;9.40;;
24843;SDS011;12921;51.392;12.240;2022-11-20T03:53:38;3.22;;;2.00;;
24843;SDS011;12921;51.392;12.240;2022-11-20T03:56:04;9.98;;;4.10;;
24843;SDS011;12921;51.392;12.240;2022-11-20T03:58:30;10.05;;;5.90;;
24843;SDS011;12921;51.392;12.240;2022-11-20T04:00:56;17.92;;;5.68;;
24843;SDS011;12921;51.392;12.240;2022-11-20T04:03:22;11.10;;;8.13;;
24843;SDS011;12921;51.392;12.240;2022-11-20T04:05:48;21.35;;;10.02;;
24843;SDS011;12921;51.392;12.240;2022-11-20T04:08:14;15.20;;;7.10;;
24843;SDS011;12921;51.392;12.240;2022-11-20T04:10:40;23.30;;;10.27;;
24843;SDS011;12921;51.392;12.240;2022-11-20T04:13:06;18.48;;;7.93;;
24843;SDS011;12921;51.392;12.240;2022-11-20T04:15:32;17.85;;;6.90;;
24843;SDS011;12921;51.392;12.240;2022-11-20T04:17:58;4.88;;;4.32;;
24843;SDS011;12921;51.392;12.240;2022-11-20T04:20:24;13.43;;;6.53;;
24843;SDS011;12921;51.392;12.240;2022-11-20T04:22:52;7.05;;;4.70;;
24843;SDS011;12921;51.392;12.240;2022-11-20T04:25:19;2.45;;;2.25;;
24843;SDS011;12921;51.392;12.240;2022-11-20T04:27:45;2.08;;;1.98;;
24843;SDS011;12921;51.392;12.240;2022-11-20T04:30:11;10.57;;;6.18;;
24843;SDS011;12921;51.392;12.240;2022-11-20T04:32:37;2.85;;;2.70;;
24843;SDS011;12921;51.392;12.240;2022-11-20T04:35:03;3.95;;;2.17;;
24843;SDS011;12921;51.392;12.240;2022-11-20T04:37:29;12.18;;;6.63;;
24843;SDS011;12921;51.392;12.240;2022-11-20T04:39:55;6.80;;;5.50;;
24843;SDS011;12921;51.392;12.240;2022-11-20T04:42:21;12.95;;;7.13;;
24843;SDS011;12921;51.392;12.240;2022-11-20T04:44:53;15.75;;;7.47;;
24843;SDS011;12921;51.392;12.240;2022-11-20T04:47:19;26.60;;;12.70;;
24843;SDS011;12921;51.392;12.240;2022-11-20T04:49:45;22.77;;;9.00;;
24843;SDS011;12921;51.392;12.240;2022-11-20T04:52:11;28.20;;;9.13;;
24843;SDS011;12921;51.392;12.240;2022-11-20T04:54:37;18.60;;;9.13;;
24843;SDS011;12921;51.392;12.240;2022-11-20T04:57:03;16.67;;;8.07;;
24843;SDS011;12921;51.392;12.240;2022-11-20T04:59:29;20.00;;;9.85;;
24843;SDS011;12921;51.392;12.240;2022-11-20T05:01:55;17.23;;;7.10;;
24843;SDS011;12921;51.392;12.240;2022-11-20T05:04:21;27.38;;;12.65;;
24843;SDS011;12921;51.392;12.240;2022-11-20T05:06:49;30.92;;;14.93;;
24843;SDS011;12921;51.392;12.240;2022-11-20T05:09:14;36.85;;;15.77;;
24843;SDS011;12921;51.392;12.240;2022-11-20T05:11:40;26.27;;;11.57;;
24843;SDS011;12921;51.392;12.240;2022-11-20T05:14:07;35.42;;;14.00;;
24843;SDS011;12921;51.392;12.240;2022-11-20T05:16:33;26.98;;;10.45;;
24843;SDS011;12921;51.392;12.240;2022-11-20T05:19:00;41.38;;;18.63;;
24843;SDS011;12921;51.392;12.240;2022-11-20T05:21:26;31.88;;;13.45;;
24843;SDS011;12921;51.392;12.240;2022-11-20T05:23:52;20.77;;;7.93;;
24843;SDS011;12921;51.392;12.240;2022-11-20T05:26:19;35.28;;;14.15;;
24843;SDS011;12921;51.392;12.240;2022-11-20T05:28:46;50.42;;;18.73;;
24843;SDS011;12921;51.392;12.240;2022-11-20T05:31:13;30.58;;;11.25;;
24843;SDS011;12921;51.392;12.240;2022-11-20T05:33:40;16.08;;;7.13;;
24843;SDS011;12921;51.392;12.240;2022-11-20T05:36:06;27.33;;;10.07;;
24843;SDS011;12921;51.392;12.240;2022-11-20T05:38:33;49.83;;;21.95;;
24843;SDS011;12921;51.392;12.240;2022-11-20T05:43:34;31.00;;;13.75;;
24843;SDS011;12921;51.392;12.240;2022-11-20T05:46:00;31.40;;;14.50;;
24843;SDS011;12921;51.392;12.240;2022-11-20T05:48:26;26.20;;;10.48;;
24843;SDS011;12921;51.392;12.240;2022-11-20T05:50:52;19.02;;;10.20;;
24843;SDS011;12921;51.392;12.240;2022-11-20T05:53:18;23.27;;;11.30;;
24843;SDS011;12921;51.392;12.240;2022-11-20T05:55:44;27.35;;;11.48;;
24843;SDS011;12921;51.392;12.240;2022-11-20T05:58:10;18.58;;;8.63;;
24843;SDS011;12921;51.392;12.240;2022-11-20T06:00:36;30.05;;;13.50;;
24843;SDS011;12921;51.392;12.240;2022-11-20T06:03:02;46.47;;;20.00;;
24843;SDS011;12921;51.392;12.240;2022-11-20T06:05:28;42.88;;;17.80;;
24843;SDS011;12921;51.392;12.240;2022-11-20T06:07:54;51.85;;;21.20;;
24843;SDS011;12921;51.392;12.240;2022-11-20T06:10:20;33.83;;;16.25;;
24843;SDS011;12921;51.392;12.240;2022-11-20T06:12:46;39.63;;;17.25;;
24843;SDS011;12921;51.392;12.240;2022-11-20T06:15:12;35.38;;;14.07;;
24843;SDS011;12921;51.392;12.240;2022-11-20T06:17:38;45.55;;;18.05;;
24843;SDS011;12921;51.392;12.240;2022-11-20T06:20:04;33.97;;;15.60;;
24843;SDS011;12921;51.392;12.240;2022-11-20T06:22:31;24.67;;;11.88;;
24843;SDS011;12921;51.392;12.240;2022-11-20T06:24:58;40.60;;;16.85;;
24843;SDS011;12921;51.392;12.240;2022-11-20T06:27:24;49.08;;;18.58;;
24843;SDS011;12921;51.392;12.240;2022-11-20T06:29:49;38.97;;;16.63;;
24843;SDS011;12921;51.392;12.240;2022-11-20T06:32:15;48.30;;;20.85;;
24843;SDS011;12921;51.392;12.240;2022-11-20T06:34:41;40.00;;;19.98;;
24843;SDS011;12921;51.392;12.240;2022-11-20T06:37:07;45.72;;;15.43;;
24843;SDS011;12921;51.392;12.240;2022-11-20T06:39:33;32.70;;;13.98;;
24843;SDS011;12921;51.392;12.240;2022-11-20T06:41:59;17.45;;;9.23;;
24843;SDS011;12921;51.392;12.240;2022-11-20T06:44:25;11.75;;;6.80;;
24843;SDS011;12921;51.392;12.240;2022-11-20T06:46:51;37.85;;;16.17;;
24843;SDS011;12921;51.392;12.240;2022-11-20T06:49:17;34.55;;;14.50;;
24843;SDS011;12921;51.392;12.240;2022-11-20T06:51:43;42.25;;;15.88;;
24843;SDS011;12921;51.392;12.240;2022-11-20T06:54:09;51.60;;;16.35;;
24843;SDS011;12921;51.392;12.240;2022-11-20T06:56:35;53.95;;;22.05;;
24843;SDS011;12921;51.392;12.240;2022-11-20T06:59:05;39.78;;;15.65;;
24843;SDS011;12921;51.392;12.240;2022-11-20T07:01:31;40.95;;;19.05;;
24843;SDS011;12921;51.392;12.240;2022-11-20T07:03:57;33.13;;;13.73;;
24843;SDS011;12921;51.392;12.240;2022-11-20T07:06:23;53.13;;;21.45;;
24843;SDS011;12921;51.392;12.240;2022-11-20T07:08:52;39.88;;;15.85;;
24843;SDS011;12921;51.392;12.240;2022-11-20T07:11:19;46.75;;;19.63;;
24843;SDS011;12921;51.392;12.240;2022-11-20T07:13:45;67.05;;;20.88;;
24843;SDS011;12921;51.392;12.240;2022-11-20T07:16:11;81.05;;;28.20;;
24843;SDS011;12921;51.392;12.240;2022-11-20T07:18:37;58.33;;;24.90;;
24843;SDS011;12921;51.392;12.240;2022-11-20T07:21:04;57.72;;;22.60;;
24843;SDS011;12921;51.392;12.240;2022-11-20T07:23:30;58.33;;;22.13;;
24843;SDS011;12921;51.392;12.240;2022-11-20T07:25:56;85.97;;;31.60;;
24843;SDS011;12921;51.392;12.240;2022-11-20T07:28:22;61.10;;;22.13;;
24843;SDS011;12921;51.392;12.240;2022-11-20T07:30:49;21.17;;;11.40;;
24843;SDS011;12921;51.392;12.240;2022-11-20T07:33:15;65.18;;;24.65;;
24843;SDS011;12921;51.392;12.240;2022-11-20T07:35:41;38.20;;;14.63;;
24843;SDS011;12921;51.392;12.240;2022-11-20T07:38:07;32.45;;;15.90;;
24843;SDS011;12921;51.392;12.240;2022-11-20T07:40:33;40.55;;;17.63;;
24843;SDS011;12921;51.392;12.240;2022-11-20T07:42:59;50.50;;;21.85;;
24843;SDS011;12921;51.392;12.240;2022-11-20T07:45:25;34.75;;;14.05;;
24843;SDS011;12921;51.392;12.240;2022-11-20T07:47:51;30.00;;;13.75;;
24843;SDS011;12921;51.392;12.240;2022-11-20T07:50:17;76.82;;;28.73;;
24843;SDS011;12921;51.392;12.240;2022-11-20T07:52:43;57.30;;;21.55;;
24843;SDS011;12921;51.392;12.240;2022-11-20T07:55:10;41.67;;;17.48;;
24843;SDS011;12921;51.392;12.240;2022-11-20T07:57:36;16.15;;;9.57;;
24843;SDS011;12921;51.392;12.240;2022-11-20T08:00:05;18.88;;;8.52;;
24843;SDS011;12921;51.392;12.240;2022-11-20T08:02:36;44.13;;;18.23;;
24843;SDS011;12921;51.392;12.240;2022-11-20T08:05:03;72.65;;;27.85;;
24843;SDS011;12921;51.392;12.240;2022-11-20T08:07:34;65.90;;;25.08;;
24843;SDS011;12921;51.392;12.240;2022-11-20T08:10:00;9.93;;;3.65;;
24843;SDS011;12921;51.392;12.240;2022-11-20T08:12:27;7.78;;;4.82;;
24843;SDS011;12921;51.392;12.240;2022-11-20T08:15:11;50.13;;;22.95;;
24843;SDS011;12921;51.392;12.240;2022-11-20T08:17:37;57.28;;;21.42;;
24843;SDS011;12921;51.392;12.240;2022-11-20T08:20:03;60.33;;;24.27;;
24843;SDS011;12921;51.392;12.240;2022-11-20T08:22:29;77.50;;;31.33;;
24843;SDS011;12921;51.392;12.240;2022-11-20T08:24:55;30.48;;;11.60;;
24843;SDS011;12921;51.392;12.240;2022-11-20T08:27:22;31.35;;;9.30;;
24843;SDS011;12921;51.392;12.240;2022-11-20T08:29:48;1.33;;;1.33;;
24843;SDS011;12921;51.392;12.240;2022-11-20T08:32:14;43.20;;;17.23;;
24843;SDS011;12921;51.392;12.240;2022-11-20T08:34:40;56.17;;;23.05;;
24843;SDS011;12921;51.392;12.240;2022-11-20T08:37:06;61.00;;;26.15;;
24843;SDS011;12921;51.392;12.240;2022-11-20T08:39:32;44.65;;;22.05;;
24843;SDS011;12921;51.392;12.240;2022-11-20T08:41:58;30.27;;;14.98;;
24843;SDS011;12921;51.392;12.240;2022-11-20T08:44:24;15.80;;;8.77;;
24843;SDS011;12921;51.392;12.240;2022-11-20T08:46:50;49.38;;;18.70;;
24843;SDS011;12921;51.392;12.240;2022-11-20T08:49:16;19.60;;;6.72;;
24843;SDS011;12921;51.392;12.240;2022-11-20T08:51:43;11.32;;;4.97;;
24843;SDS011;12921;51.392;12.240;2022-11-20T08:54:09;20.85;;;10.82;;
24843;SDS011;12921;51.392;12.240;2022-11-20T08:56:35;9.90;;;7.50;;
24843;SDS011;12921;51.392;12.240;2022-11-20T08:59:02;6.35;;;2.53;;
24843;SDS011;12921;51.392;12.240;2022-11-20T09:01:28;18.85;;;8.20;;
24843;SDS011;12921;51.392;12.240;2022-11-20T09:03:57;35.20;;;17.17;;
24843;SDS011;12921;51.392;12.240;2022-11-20T09:06:24;47.83;;;25.00;;
24843;SDS011;12921;51.392;12.240;2022-11-20T09:08:54;26.08;;;12.25;;
24843;SDS011;12921;51.392;12.240;2022-11-20T09:11:20;10.88;;;6.15;;
24843;SDS011;12921;51.392;12.240;2022-11-20T09:13:46;21.10;;;11.82;;
24843;SDS011;12921;51.392;12.240;2022-11-20T09:16:12;42.25;;;14.85;;
24843;SDS011;12921;51.392;12.240;2022-11-20T09:18:38;17.05;;;9.40;;
24843;SDS011;12921;51.392;12.240;2022-11-20T09:21:06;18.27;;;9.23;;
24843;SDS011;12921;51.392;12.240;2022-11-20T09:23:33;3.20;;;2.92;;
24843;SDS011;12921;51.392;12.240;2022-11-20T09:26:03;14.23;;;9.40;;
24843;SDS011;12921;51.392;12.240;2022-11-20T09:28:29;9.98;;;5.40;;
24843;SDS011;12921;51.392;12.240;2022-11-20T09:30:55;8.82;;;5.32;;
24843;SDS011;12921;51.392;12.240;2022-11-20T09:33:21;38.85;;;13.70;;
24843;SDS011;12921;51.392;12.240;2022-11-20T09:35:47;23.42;;;11.52;;
24843;SDS011;12921;51.392;12.240;2022-11-20T09:38:13;25.83;;;10.88;;
24843;SDS011;12921;51.392;12.240;2022-11-20T09:40:43;36.35;;;16.75;;
24843;SDS011;12921;51.392;12.240;2022-11-20T09:43:32;8.43;;;5.18;;
24843;SDS011;12921;51.392;12.240;2022-11-20T09:46:13;1.67;;;1.40;;
24843;SDS011;12921;51.392;12.240;2022-11-20T09:51:16;30.08;;;15.48;;
24843;SDS011;12921;51.392;12.240;2022-11-20T09:56:33;35.10;;;18.88;;
24843;SDS011;12921;51.392;12.240;2022-11-20T09:59:02;17.20;;;7.97;;
24843;SDS011;12921;51.392;12.240;2022-11-20T10:01:30;43.97;;;19.02;;
24843;SDS011;12921;51.392;12.240;2022-11-20T10:04:04;22.58;;;9.23;;
24843;SDS011;12921;51.392;12.240;2022-11-20T10:06:33;13.60;;;7.65;;
24843;SDS011;12921;51.392;12.240;2022-11-20T10:20:15;29.02;;;15.25;;
24843;SDS011;12921;51.392;12.240;2022-11-20T10:26:11;26.45;;;11.75;;
24843;SDS011;12921;51.392;12.240;2022-11-20T10:30:40;21.60;;;8.77;;
24843;SDS011;12921;51.392;12.240;2022-11-20T10:33:21;6.70;;;4.20;;
24843;SDS011;12921;51.392;12.240;2022-11-20T10:35:52;16.45;;;7.55;;
24843;SDS011;12921;51.392;12.240;2022-11-20T10:38:25;23.35;;;11.55;;
24843;SDS011;12921;51.392;12.240;2022-11-20T10:40:53;9.70;;;4.68;;
24843;SDS011;12921;51.392;12.240;2022-11-20T10:43:40;24.27;;;11.98;;
24843;SDS011;12921;51.392;12.240;2022-11-20T10:46:10;26.48;;;14.05;;
24843;SDS011;12921;51.392;12.240;2022-11-20T10:48:38;24.20;;;11.00;;
24843;SDS011;12921;51.392;12.240;2022-11-20T10:51:16;26.73;;;14.93;;
24843;SDS011;12921;51.392;12.240;2022-11-20T10:56:20;1.33;;;1.23;;
24843;SDS011;12921;51.392;12.240;2022-11-20T11:01:28;4.13;;;2.63;;
24843;SDS011;12921;51.392;12.240;2022-11-20T11:03:55;1.20;;;1.10;;
24843;SDS011;12921;51.392;12.240;2022-11-20T11:08:50;13.85;;;6.03;;
24843;SDS011;12921;51.392;12.240;2022-11-20T11:11:22;22.75;;;12.75;;
24843;SDS011;12921;51.392;12.240;2022-11-20T11:13:49;6.10;;;3.15;;
24843;SDS011;12921;51.392;12.240;2022-11-20T11:16:19;20.42;;;11.90;;
24843;SDS011;12921;51.392;12.240;2022-11-20T11:18:45;12.60;;;5.57;;
24843;SDS011;12921;51.392;12.240;2022-11-20T11:21:11;15.35;;;8.90;;
24843;SDS011;12921;51.392;12.240;2022-11-20T11:23:39;9.50;;;5.55;;
24843;SDS011;12921;51.392;12.240;2022-11-20T11:26:19;16.65;;;8.70;;
24843;SDS011;12921;51.392;12.240;2022-11-20T11:29:19;20.27;;;9.05;;
24843;SDS011;12921;51.392;12.240;2022-11-20T11:31:38;16.30;;;6.88;;
24843;SDS011;12921;51.392;12.240;2022-11-20T11:34:05;22.42;;;9.30;;
24843;SDS011;12921;51.392;12.240;2022-11-20T11:36:31;26.17;;;13.52;;
24843;SDS011;12921;51.392;12.240;2022-11-20T11:38:58;12.93;;;6.55;;
24843;SDS011;12921;51.392;12.240;2022-11-20T11:41:25;16.02;;;7.47;;
24843;SDS011;12921;51.392;12.240;2022-11-20T11:43:54;6.13;;;3.08;;
24843;SDS011;12921;51.392;12.240;2022-11-20T11:46:43;8.40;;;3.90;;
24843;SDS011;12921;51.392;12.240;2022-11-20T11:54:03;8.25;;;3.08;;
24843;SDS011;12921;51.392;12.240;2022-11-20T11:56:30;1.75;;;1.20;;
24843;SDS011;12921;51.392;12.240;2022-11-20T11:59:00;15.68;;;7.78;;
24843;SDS011;12921;51.392;12.240;2022-11-20T12:04:00;9.20;;;5.32;;
24843;SDS011;12921;51.392;12.240;2022-11-20T12:06:28;13.55;;;5.50;;
24843;SDS011;12921;51.392;12.240;2022-11-20T12:08:57;10.15;;;6.45;;
24843;SDS011;12921;51.392;12.240;2022-11-20T12:11:46;4.90;;;2.55;;
24843;SDS011;12921;51.392;12.240;2022-11-20T12:14:13;17.27;;;8.43;;
24843;SDS011;12921;51.392;12.240;2022-11-20T12:16:40;17.23;;;8.85;;
24843;SDS011;12921;51.392;12.240;2022-11-20T12:19:10;19.83;;;11.50;;
24843;SDS011;12921;51.392;12.240;2022-11-20T12:29:48;22.17;;;10.52;;
24843;SDS011;12921;51.392;12.240;2022-11-20T12:39:56;2.63;;;2.45;;
24843;SDS011;12921;51.392;12.240;2022-11-20T12:50:12;20.27;;;11.27;;
24843;SDS011;12921;51.392;12.240;2022-11-20T12:55:16;22.67;;;12.10;;
24843;SDS011;12921;51.392;12.240;2022-11-20T13:00:19;15.63;;;8.13;;
24843;SDS011;12921;51.392;12.240;2022-11-20T13:02:58;9.80;;;4.88;;
24843;SDS011;12921;51.392;12.240;2022-11-20T13:07:52;10.18;;;3.72;;
24843;SDS011;12921;51.392;12.240;2022-11-20T13:12:50;1.55;;;0.93;;
24843;SDS011;12921;51.392;12.240;2022-11-20T13:17:54;17.95;;;7.00;;
24843;SDS011;12921;51.392;12.240;2022-11-20T13:20:21;23.38;;;13.07;;
24843;SDS011;12921;51.392;12.240;2022-11-20T13:22:48;10.70;;;7.25;;
24843;SDS011;12921;51.392;12.240;2022-11-20T13:25:23;12.07;;;6.63;;
24843;SDS011;12921;51.392;12.240;2022-11-20T13:27:49;16.83;;;9.77;;
24843;SDS011;12921;51.392;12.240;2022-11-20T13:30:16;22.67;;;12.15;;
24843;SDS011;12921;51.392;12.240;2022-11-20T13:32:50;4.80;;;3.90;;
24843;SDS011;12921;51.392;12.240;2022-11-20T13:35:27;25.08;;;13.50;;
24843;SDS011;12921;51.392;12.240;2022-11-20T13:38:00;10.85;;;3.97;;
24843;SDS011;12921;51.392;12.240;2022-11-20T13:40:27;25.73;;;13.85;;
24843;SDS011;12921;51.392;12.240;2022-11-20T13:45:37;17.50;;;9.90;;
24843;SDS011;12921;51.392;12.240;2022-11-20T13:48:05;7.13;;;4.13;;
24843;SDS011;12921;51.392;12.240;2022-11-20T13:51:28;21.42;;;10.63;;
24843;SDS011;12921;51.392;12.240;2022-11-20T14:01:42;1.52;;;1.42;;
24843;SDS011;12921;51.392;12.240;2022-11-20T14:04:13;21.17;;;9.25;;
24843;SDS011;12921;51.392;12.240;2022-11-20T14:06:41;8.88;;;4.47;;
24843;SDS011;12921;51.392;12.240;2022-11-20T14:12:14;6.85;;;3.05;;
24843;SDS011;12921;51.392;12.240;2022-11-20T14:14:46;10.60;;;4.70;;
24843;SDS011;12921;51.392;12.240;2022-11-20T14:17:46;20.95;;;9.93;;
24843;SDS011;12921;51.392;12.240;2022-11-20T14:20:06;8.40;;;4.32;;
24843;SDS011;12921;51.392;12.240;2022-11-20T14:22:33;18.40;;;10.00;;
24843;SDS011;12921;51.392;12.240;2022-11-20T14:27:36;4.38;;;2.80;;
24843;SDS011;12921;51.392;12.240;2022-11-20T14:30:02;2.95;;;1.80;;
24843;SDS011;12921;51.392;12.240;2022-11-20T14:32:29;3.40;;;1.90;;
24843;SDS011;12921;51.392;12.240;2022-11-20T14:34:56;13.35;;;6.53;;
24843;SDS011;12921;51.392;12.240;2022-11-20T14:37:24;9.00;;;4.55;;
24843;SDS011;12921;51.392;12.240;2022-11-20T14:39:52;5.47;;;2.80;;
24843;SDS011;12921;51.392;12.240;2022-11-20T14:42:20;0.60;;;0.60;;
24843;SDS011;12921;51.392;12.240;2022-11-20T14:44:50;3.35;;;1.88;;
24843;SDS011;12921;51.392;12.240;2022-11-20T14:47:18;0.20;;;0.20;;
24843;SDS011;12921;51.392;12.240;2022-11-20T14:49:45;2.38;;;1.67;;
24843;SDS011;12921;51.392;12.240;2022-11-20T14:52:15;2.40;;;2.05;;
24843;SDS011;12921;51.392;12.240;2022-11-20T14:57:20;1.40;;;1.30;;
24843;SDS011;12921;51.392;12.240;2022-11-20T14:59:46;7.88;;;4.97;;
24843;SDS011;12921;51.392;12.240;2022-11-20T15:02:12;2.75;;;2.35;;
24843;SDS011;12921;51.392;12.240;2022-11-20T15:05:12;11.75;;;10.98;;
24843;SDS011;12921;51.392;12.240;2022-11-20T15:07:32;6.93;;;2.42;;
24843;SDS011;12921;51.392;12.240;2022-11-20T15:12:29;2.10;;;2.00;;
24843;SDS011;12921;51.392;12.240;2022-11-20T15:14:55;14.23;;;5.95;;
24843;SDS011;12921;51.392;12.240;2022-11-20T15:17:21;2.08;;;1.98;;
24843;SDS011;12921;51.392;12.240;2022-11-20T15:19:47;1.20;;;1.02;;
24843;SDS011;12921;51.392;12.240;2022-11-20T15:22:13;10.27;;;5.28;;
24843;SDS011;12921;51.392;12.240;2022-11-20T15:24:41;9.43;;;4.28;;
24843;SDS011;12921;51.392;12.240;2022-11-20T15:27:07;3.30;;;2.15;;
24843;SDS011;12921;51.392;12.240;2022-11-20T15:29:33;11.27;;;5.95;;
24843;SDS011;12921;51.392;12.240;2022-11-20T15:32:00;6.22;;;4.45;;
24843;SDS011;12921;51.392;12.240;2022-11-20T15:34:26;9.90;;;2.92;;
24843;SDS011;12921;51.392;12.240;2022-11-20T15:36:52;2.65;;;1.35;;
24843;SDS011;12921;51.392;12.240;2022-11-20T15:39:19;15.68;;;5.57;;
24843;SDS011;12921;51.392;12.240;2022-11-20T15:41:45;5.13;;;3.08;;
24843;SDS011;12921;51.392;12.240;2022-11-20T15:44:11;2.47;;;2.00;;
24843;SDS011;12921;51.392;12.240;2022-11-20T15:46:39;13.38;;;6.53;;
24843;SDS011;12921;51.392;12.240;2022-11-20T15:49:14;10.05;;;6.00;;
24843;SDS011;12921;51.392;12.240;2022-11-20T15:51:44;15.50;;;8.25;;
24843;SDS011;12921;51.392;12.240;2022-11-20T15:54:15;17.35;;;7.85;;
24843;SDS011;12921;51.392;12.240;2022-11-20T15:56:43;12.15;;;6.95;;
24843;SDS011;12921;51.392;12.240;2022-11-20T15:59:09;17.00;;;8.20;;
24843;SDS011;12921;51.392;12.240;2022-11-20T16:01:35;19.50;;;10.20;;
24843;SDS011;12921;51.392;12.240;2022-11-20T16:04:01;15.55;;;7.82;;
24843;SDS011;12921;51.392;12.240;2022-11-20T16:06:27;5.07;;;3.20;;